Time;durP1;ratioP1;P1;durP2;ratioP2;P2;SDS_P1;SDS_P2;PMS_P1;PMS_P2;Temp;Humidity;BMP_temperature;BMP_pressure;BME280_temperature;BME280_humidity;BME280_pressure;Samples;Min_cycle;Max_cycle;Signal;HPM_P1;HPM_P2
2024/01/16 00:01:49;;;;;;;11.23;5.07;;;-1.50;99.90;;;;;;4926747;29;20105;-89
2024/01/16 00:04:15;;;;;;;10.18;6.03;;;-1.50;99.90;;;;;;4943875;28;20030;-89
2024/01/16 00:06:42;;;;;;;9.45;4.50;;;-1.50;99.90;;;;;;4953308;28;20042;-88
2024/01/16 00:09:09;;;;;;;12.02;5.05;;;-1.50;99.90;;;;;;4939192;29;20534;-89
2024/01/16 00:11:42;;;;;;;10.68;5.65;;;-1.50;99.90;;;;;;4928709;29;20027;-89
2024/01/16 00:14:09;;;;;;;6.03;4.32;;;-1.50;99.90;;;;;;4946549;28;20047;-89
2024/01/16 00:16:50;;;;;;;8.93;4.72;;;-1.50;99.90;;;;;;4943687;29;20027;-89
2024/01/16 00:19:16;;;;;;;8.25;4.30;;;-1.50;99.90;;;;;;4938459;29;20023;-89
2024/01/16 00:21:45;;;;;;;6.82;4.57;;;-1.50;99.90;;;;;;4949942;28;20061;-89
2024/01/16 00:24:12;;;;;;;10.18;5.25;;;-1.50;99.90;;;;;;4929323;28;20026;-89
2024/01/16 00:26:37;;;;;;;6.25;4.30;;;-1.50;99.90;;;;;;4922605;29;20142;-89
2024/01/16 00:29:03;;;;;;;9.57;5.00;;;-1.50;99.90;;;;;;4936952;29;20119;-89
2024/01/16 00:31:29;;;;;;;9.15;4.68;;;-1.50;99.90;;;;;;4952387;29;20039;-88
2024/01/16 00:33:55;;;;;;;9.52;4.70;;;-1.50;99.90;;;;;;4936336;29;20126;-89
2024/01/16 00:36:21;;;;;;;12.43;4.75;;;-1.50;99.90;;;;;;4925971;28;20027;-89
2024/01/16 00:38:47;;;;;;;9.10;4.35;;;-1.40;99.90;;;;;;4927658;29;20038;-89
2024/01/16 00:41:14;;;;;;;10.63;5.15;;;-1.40;99.90;;;;;;4939846;29;20039;-89
2024/01/16 00:43:42;;;;;;;8.95;4.35;;;-1.40;99.90;;;;;;4933769;29;20028;-89
2024/01/16 00:46:08;;;;;;;7.80;4.57;;;-1.40;99.90;;;;;;4944816;29;20403;-89
2024/01/16 00:48:34;;;;;;;9.95;4.93;;;-1.40;99.90;;;;;;4951594;28;20050;-89
2024/01/16 00:51:00;;;;;;;8.60;4.80;;;-1.40;99.90;;;;;;4920361;29;20032;-89
2024/01/16 00:53:29;;;;;;;8.90;4.65;;;-1.40;99.90;;;;;;4930178;28;20403;-89
2024/01/16 00:55:55;;;;;;;7.35;4.25;;;-1.40;99.90;;;;;;4922541;29;20032;-89
2024/01/16 00:58:24;;;;;;;11.43;4.88;;;-1.40;99.90;;;;;;4955461;28;20043;-90
2024/01/16 01:00:50;;;;;;;9.13;4.97;;;-1.40;99.90;;;;;;4941452;28;20032;-90
2024/01/16 01:03:16;;;;;;;9.23;4.45;;;-1.40;99.90;;;;;;4939059;28;20480;-89
2024/01/16 01:05:42;;;;;;;10.00;5.00;;;-1.40;99.90;;;;;;4940406;29;20059;-90
2024/01/16 01:08:08;;;;;;;7.63;4.85;;;-1.40;99.90;;;;;;4960703;28;20046;-90
2024/01/16 01:10:34;;;;;;;11.57;4.85;;;-1.40;99.90;;;;;;4938395;29;20511;-90
2024/01/16 01:13:00;;;;;;;9.85;4.88;;;-1.40;99.90;;;;;;4931246;28;20035;-89
2024/01/16 01:15:26;;;;;;;9.93;5.00;;;-1.40;99.90;;;;;;4964233;28;20035;-89
2024/01/16 01:17:54;;;;;;;10.38;4.63;;;-1.40;99.90;;;;;;4974477;28;20026;-89
2024/01/16 01:20:20;;;;;;;10.25;5.18;;;-1.40;99.90;;;;;;4964064;28;20038;-89
2024/01/16 01:22:46;;;;;;;8.23;4.82;;;-1.40;99.90;;;;;;4924419;29;20480;-88
2024/01/16 01:25:12;;;;;;;8.35;4.20;;;-1.30;99.90;;;;;;4918585;28;20037;-89
2024/01/16 01:27:39;;;;;;;6.90;4.22;;;-1.30;99.90;;;;;;4924129;29;20676;-88
2024/01/16 01:30:09;;;;;;;9.90;4.30;;;-1.40;99.90;;;;;;4917592;29;20048;-89
2024/01/16 01:32:35;;;;;;;12.15;5.55;;;-1.40;99.90;;;;;;4940672;29;20046;-90
2024/01/16 01:35:01;;;;;;;8.00;4.03;;;-1.40;99.90;;;;;;4944183;28;20664;-90
2024/01/16 01:37:26;;;;;;;8.60;4.65;;;-1.40;99.90;;;;;;4938989;28;20073;-89
2024/01/16 01:39:52;;;;;;;9.95;4.38;;;-1.40;99.90;;;;;;4942552;28;20035;-89
2024/01/16 01:42:18;;;;;;;9.60;4.35;;;-1.40;99.90;;;;;;4956731;28;20035;-90
2024/01/16 01:44:44;;;;;;;9.02;4.07;;;-1.40;99.90;;;;;;4934781;29;20086;-90
2024/01/16 01:47:09;;;;;;;11.00;4.38;;;-1.40;99.90;;;;;;4941608;28;20058;-88
2024/01/16 01:49:36;;;;;;;8.30;4.15;;;-1.40;99.90;;;;;;4955296;28;20369;-89
2024/01/16 01:52:04;;;;;;;6.93;4.03;;;-1.40;99.90;;;;;;4941844;28;20035;-89
2024/01/16 01:54:32;;;;;;;7.80;4.30;;;-1.50;99.90;;;;;;4927920;29;20039;-89
2024/01/16 01:56:58;;;;;;;8.00;4.28;;;-1.50;99.90;;;;;;4939992;28;20035;-90
2024/01/16 01:59:25;;;;;;;7.85;4.72;;;-1.50;99.90;;;;;;4926828;29;20432;-91
2024/01/16 02:01:55;;;;;;;7.97;3.78;;;-1.50;99.90;;;;;;4927956;29;20023;-90
2024/01/16 02:04:22;;;;;;;6.03;4.07;;;-1.50;99.90;;;;;;4929811;29;20023;-90
2024/01/16 02:06:49;;;;;;;8.20;3.55;;;-1.50;99.90;;;;;;4928623;29;20027;-90
2024/01/16 02:09:18;;;;;;;11.90;3.97;;;-1.50;99.90;;;;;;4961282;28;20412;-89
2024/01/16 02:11:44;;;;;;;8.27;3.72;;;-1.40;99.90;;;;;;4940749;28;20121;-90
2024/01/16 02:14:10;;;;;;;8.68;4.25;;;-1.50;99.90;;;;;;4936506;28;20063;-90
2024/01/16 02:16:40;;;;;;;8.48;4.07;;;-1.50;99.90;;;;;;4940055;29;20027;-89
2024/01/16 02:19:07;;;;;;;8.57;4.03;;;-1.50;99.90;;;;;;4941114;28;20192;-91
2024/01/16 02:21:46;;;;;;;10.27;4.07;;;-1.50;99.90;;;;;;4934862;29;20373;-89
2024/01/16 02:24:13;;;;;;;7.88;3.88;;;-1.50;99.90;;;;;;4941493;28;20031;-90
2024/01/16 02:26:39;;;;;;;8.10;4.07;;;-1.50;99.90;;;;;;4943688;28;20071;-91
2024/01/16 02:29:05;;;;;;;8.50;3.72;;;-1.40;99.90;;;;;;4930576;29;20031;-89
2024/01/16 02:31:32;;;;;;;7.47;3.38;;;-1.40;99.90;;;;;;4925487;28;20559;-89
2024/01/16 02:33:58;;;;;;;8.88;3.88;;;-1.40;99.90;;;;;;4940235;28;20046;-91
2024/01/16 02:36:28;;;;;;;5.57;3.38;;;-1.40;99.90;;;;;;4956645;28;20027;-90
2024/01/16 02:38:54;;;;;;;6.80;3.13;;;-1.40;99.90;;;;;;4923562;29;20480;-89
2024/01/16 02:41:21;;;;;;;6.97;3.70;;;-1.40;99.90;;;;;;4930955;28;20062;-89
2024/01/16 02:43:47;;;;;;;7.07;3.60;;;-1.40;99.90;;;;;;4941320;29;20031;-90
2024/01/16 02:46:14;;;;;;;7.20;3.78;;;-1.40;99.90;;;;;;4935792;29;20400;-90
2024/01/16 02:48:40;;;;;;;6.22;3.63;;;-1.40;99.90;;;;;;4939630;28;20027;-91
2024/01/16 02:51:06;;;;;;;6.72;3.47;;;-1.40;99.90;;;;;;4942567;28;20368;-89
2024/01/16 02:53:32;;;;;;;5.50;3.58;;;-1.40;99.90;;;;;;4924089;29;20027;-91
2024/01/16 02:56:00;;;;;;;12.52;3.90;;;-1.40;99.90;;;;;;4940865;28;20315;-91
2024/01/16 02:58:27;;;;;;;5.80;3.47;;;-1.40;99.90;;;;;;4940587;28;20042;-90
2024/01/16 03:00:53;;;;;;;9.15;3.83;;;-1.40;99.90;;;;;;4941196;29;20031;-90
2024/01/16 03:03:20;;;;;;;7.80;4.18;;;-1.40;99.90;;;;;;4925273;28;20500;-90
2024/01/16 03:05:46;;;;;;;8.63;3.38;;;-1.40;99.90;;;;;;4924528;29;20028;-90
2024/01/16 03:08:12;;;;;;;6.85;3.10;;;-1.40;99.90;;;;;;4924524;28;20050;-90
2024/01/16 03:10:38;;;;;;;8.90;4.13;;;-1.40;99.90;;;;;;4904621;29;20044;-89
2024/01/16 03:13:05;;;;;;;8.27;4.03;;;-1.40;99.90;;;;;;4953669;28;20542;-89
2024/01/16 03:15:30;;;;;;;8.38;3.53;;;-1.30;99.90;;;;;;4937976;29;20031;-90
2024/01/16 03:17:57;;;;;;;7.82;3.80;;;-1.30;99.90;;;;;;4957013;28;20554;-89
2024/01/16 03:20:23;;;;;;;7.28;2.95;;;-1.30;99.90;;;;;;4923721;28;20492;-90
2024/01/16 03:22:49;;;;;;;7.05;3.47;;;-1.40;99.90;;;;;;4923307;29;20035;-89
2024/01/16 03:25:16;;;;;;;6.65;3.45;;;-1.40;99.90;;;;;;4935385;28;20058;-89
2024/01/16 03:27:42;;;;;;;6.63;3.35;;;-1.40;99.90;;;;;;4928789;28;20089;-90
2024/01/16 03:30:08;;;;;;;3.72;3.00;;;-1.40;99.90;;;;;;4936737;28;20055;-90
2024/01/16 03:32:36;;;;;;;8.43;3.50;;;-1.40;99.90;;;;;;4938716;29;20039;-91
2024/01/16 03:35:02;;;;;;;7.03;3.65;;;-1.40;99.90;;;;;;4940166;28;20035;-91
2024/01/16 03:37:28;;;;;;;6.32;3.05;;;-1.40;99.90;;;;;;4932642;28;20042;-91
2024/01/16 03:39:54;;;;;;;7.57;3.55;;;-1.40;99.90;;;;;;4939852;28;20023;-89
2024/01/16 03:42:21;;;;;;;5.32;3.33;;;-1.40;99.90;;;;;;4926026;28;20046;-90
2024/01/16 03:44:47;;;;;;;6.63;3.00;;;-1.40;99.90;;;;;;4928788;28;20078;-90
2024/01/16 03:47:13;;;;;;;7.05;3.22;;;-1.40;99.90;;;;;;4958917;28;20488;-90
2024/01/16 03:49:39;;;;;;;8.18;3.65;;;-1.40;99.90;;;;;;4956317;28;20063;-91
2024/01/16 03:52:05;;;;;;;9.93;3.35;;;-1.40;99.90;;;;;;4928480;28;20028;-90
2024/01/16 03:54:31;;;;;;;6.03;3.63;;;-1.50;99.90;;;;;;4928111;28;20140;-90
2024/01/16 03:56:56;;;;;;;7.18;3.55;;;-1.50;99.90;;;;;;4923325;29;20031;-90
2024/01/16 03:59:23;;;;;;;9.13;3.28;;;-1.50;99.90;;;;;;4955650;28;20089;-90
2024/01/16 04:01:49;;;;;;;6.20;3.15;;;-1.50;99.90;;;;;;4938344;29;20042;-91
2024/01/16 04:04:15;;;;;;;8.45;3.72;;;-1.60;99.90;;;;;;4947795;28;20083;-90
2024/01/16 04:06:42;;;;;;;9.55;3.78;;;-1.50;99.90;;;;;;4924239;29;20035;-90
2024/01/16 04:09:09;;;;;;;6.63;3.70;;;-1.60;99.90;;;;;;4937986;28;20080;-89
2024/01/16 04:11:35;;;;;;;13.32;3.83;;;-1.60;99.90;;;;;;4952179;28;20035;-90
2024/01/16 04:14:01;;;;;;;6.85;3.58;;;-1.60;99.90;;;;;;4951691;28;20518;-89
2024/01/16 04:16:27;;;;;;;6.45;3.50;;;-1.70;99.90;;;;;;4915643;29;20031;-92
2024/01/16 04:18:53;;;;;;;6.97;3.13;;;-1.60;99.90;;;;;;4934424;28;20078;-88
2024/01/16 04:21:19;;;;;;;6.82;3.53;;;-1.60;99.90;;;;;;4941485;28;20063;-90
2024/01/16 04:23:45;;;;;;;7.15;3.33;;;-1.60;99.90;;;;;;4935686;28;20028;-89
2024/01/16 04:26:10;;;;;;;4.32;2.88;;;-1.60;99.90;;;;;;4952378;28;20023;-90
2024/01/16 04:28:37;;;;;;;5.18;3.45;;;-1.60;99.90;;;;;;4939331;28;20038;-88
2024/01/16 04:31:04;;;;;;;6.82;3.50;;;-1.60;99.90;;;;;;4939878;29;20054;-88
2024/01/16 04:33:30;;;;;;;9.52;3.50;;;-1.60;99.90;;;;;;4938044;28;20106;-91
2024/01/16 04:35:56;;;;;;;5.38;3.22;;;-1.60;99.90;;;;;;4936070;29;20031;-90
2024/01/16 04:38:22;;;;;;;8.90;3.67;;;-1.60;99.90;;;;;;4942513;28;20031;-90
2024/01/16 04:40:47;;;;;;;8.32;3.47;;;-1.60;99.90;;;;;;4939748;29;20024;-90
2024/01/16 04:43:13;;;;;;;7.95;4.03;;;-1.50;99.90;;;;;;4940651;28;20047;-90
2024/01/16 04:45:39;;;;;;;9.25;3.53;;;-1.50;99.90;;;;;;4944985;29;20154;-89
2024/01/16 04:48:05;;;;;;;6.50;3.15;;;-1.50;99.90;;;;;;4940738;28;20407;-88
2024/01/16 04:50:31;;;;;;;7.15;4.13;;;-1.50;99.90;;;;;;4924360;28;20043;-88
2024/01/16 04:53:01;;;;;;;6.55;3.45;;;-1.50;99.90;;;;;;4927571;28;20114;-91
2024/01/16 04:55:30;;;;;;;9.07;4.20;;;-1.50;99.90;;;;;;4937234;28;20094;-89
2024/01/16 04:57:56;;;;;;;6.25;4.00;;;-1.50;99.90;;;;;;4926990;28;20058;-90
2024/01/16 05:00:22;;;;;;;6.60;3.67;;;-1.50;99.90;;;;;;4926872;28;20525;-91
2024/01/16 05:02:49;;;;;;;6.22;3.72;;;-1.60;99.90;;;;;;4951501;28;20039;-91
2024/01/16 05:05:14;;;;;;;10.38;3.60;;;-1.60;99.90;;;;;;4940687;28;20042;-91
2024/01/16 05:07:41;;;;;;;8.65;4.03;;;-1.60;99.90;;;;;;4926848;29;20035;-90
2024/01/16 05:10:10;;;;;;;7.70;3.83;;;-1.60;99.90;;;;;;4945548;28;20059;-91
2024/01/16 05:12:36;;;;;;;4.95;3.42;;;-1.70;99.90;;;;;;4931583;28;20054;-90
2024/01/16 05:15:02;;;;;;;12.07;4.53;;;-1.80;99.90;;;;;;4938732;28;20510;-88
2024/01/16 05:17:29;;;;;;;9.00;3.78;;;-1.80;99.90;;;;;;4927773;28;20047;-90
2024/01/16 05:19:55;;;;;;;9.23;4.32;;;-1.80;99.90;;;;;;4940864;29;20035;-89
2024/01/16 05:22:21;;;;;;;8.55;4.50;;;-1.90;99.90;;;;;;4942650;28;20027;-90
2024/01/16 05:24:47;;;;;;;7.40;4.03;;;-1.90;99.90;;;;;;4930289;29;20460;-90
2024/01/16 05:27:14;;;;;;;7.07;3.88;;;-2.00;99.90;;;;;;4943340;28;20035;-89
2024/01/16 05:29:43;;;;;;;5.63;3.70;;;-2.00;99.90;;;;;;4923143;29;20046;-91
2024/01/16 05:32:09;;;;;;;9.23;4.82;;;-2.00;99.90;;;;;;4942026;29;20039;-90
2024/01/16 05:34:34;;;;;;;6.93;4.20;;;-2.00;99.90;;;;;;4925074;29;20031;-90
2024/01/16 05:37:00;;;;;;;9.10;4.28;;;-2.10;99.90;;;;;;4922745;28;20092;-89
2024/01/16 05:39:26;;;;;;;9.50;3.92;;;-2.20;99.90;;;;;;4926265;28;20573;-89
2024/01/16 05:41:52;;;;;;;6.95;3.88;;;-2.20;99.90;;;;;;4940531;29;20027;-90
2024/01/16 05:44:18;;;;;;;13.57;5.40;;;-2.20;99.90;;;;;;4942228;28;20027;-90
2024/01/16 05:46:44;;;;;;;8.73;4.40;;;-2.20;99.90;;;;;;4939968;29;20521;-90
2024/01/16 05:49:12;;;;;;;8.20;4.25;;;-2.30;99.90;;;;;;4938973;29;20035;-90
2024/01/16 05:51:38;;;;;;;9.25;5.00;;;-2.20;99.90;;;;;;4924439;29;20476;-90
2024/01/16 05:54:03;;;;;;;10.73;5.00;;;-2.10;99.90;;;;;;4924418;29;20078;-90
2024/01/16 05:56:31;;;;;;;10.90;4.72;;;-2.00;99.90;;;;;;4949019;28;20036;-89
2024/01/16 05:58:57;;;;;;;9.57;4.30;;;-2.00;99.90;;;;;;4956784;28;20078;-90
2024/01/16 06:01:23;;;;;;;10.10;4.32;;;-2.00;99.90;;;;;;4956257;28;20110;-90
2024/01/16 06:03:49;;;;;;;8.15;4.43;;;-2.00;99.90;;;;;;4942921;28;20567;-90
2024/01/16 06:06:16;;;;;;;9.70;4.72;;;-2.00;99.90;;;;;;4939282;29;20540;-90
2024/01/16 06:08:41;;;;;;;9.05;4.20;;;-2.00;99.90;;;;;;4944656;29;20038;-90
2024/01/16 06:11:07;;;;;;;9.98;5.18;;;-2.00;99.90;;;;;;4923658;29;20039;-90
2024/01/16 06:13:33;;;;;;;9.80;4.68;;;-2.00;99.90;;;;;;4958795;28;20439;-90
2024/01/16 06:15:59;;;;;;;12.75;4.38;;;-1.90;99.90;;;;;;4942915;28;20089;-90
2024/01/16 06:18:25;;;;;;;9.70;4.43;;;-1.90;99.90;;;;;;4943031;28;20499;-90
2024/01/16 06:20:51;;;;;;;11.95;5.10;;;-1.90;99.90;;;;;;4936039;29;20031;-90
2024/01/16 06:23:16;;;;;;;10.05;4.85;;;-1.90;99.90;;;;;;4924828;29;20031;-90
2024/01/16 06:25:42;;;;;;;7.22;4.65;;;-1.80;99.90;;;;;;4924654;29;20031;-90
2024/01/16 06:28:08;;;;;;;7.97;5.10;;;-1.80;99.90;;;;;;4939653;29;20469;-90
2024/01/16 06:30:34;;;;;;;12.18;5.53;;;-1.80;99.90;;;;;;4956298;28;20556;-90
2024/01/16 06:33:00;;;;;;;17.58;5.65;;;-1.80;99.90;;;;;;4956470;29;20035;-90
2024/01/16 06:35:26;;;;;;;11.77;5.95;;;-1.70;99.90;;;;;;4946382;29;20506;-89
2024/01/16 06:37:51;;;;;;;12.10;5.20;;;-1.70;99.90;;;;;;4923832;29;20035;-90
2024/01/16 06:40:17;;;;;;;14.20;5.53;;;-1.80;99.90;;;;;;4955261;29;20408;-89
2024/01/16 06:42:43;;;;;;;9.88;5.97;;;-1.70;99.90;;;;;;4923697;29;20035;-90
2024/01/16 06:45:09;;;;;;;10.70;5.93;;;-1.80;99.90;;;;;;4937502;29;20031;-90
2024/01/16 06:47:35;;;;;;;9.80;5.22;;;-1.80;99.90;;;;;;4938891;29;20050;-89
2024/01/16 06:50:01;;;;;;;8.32;5.00;;;-1.80;99.90;;;;;;4939302;29;20031;-91
2024/01/16 06:52:27;;;;;;;7.40;5.45;;;-1.90;99.90;;;;;;4923009;29;20086;-90
2024/01/16 06:54:52;;;;;;;10.10;5.60;;;-2.00;99.90;;;;;;4938625;29;20027;-89
2024/01/16 06:57:18;;;;;;;11.02;6.57;;;-2.00;99.90;;;;;;4919864;29;20047;-89
2024/01/16 06:59:44;;;;;;;9.07;5.40;;;-2.00;99.90;;;;;;4935507;29;20167;-90
2024/01/16 07:02:10;;;;;;;14.07;5.38;;;-2.00;99.90;;;;;;4935830;29;20118;-90
2024/01/16 07:04:36;;;;;;;9.15;5.55;;;-2.10;99.90;;;;;;4951772;29;20598;-90
2024/01/16 07:07:02;;;;;;;11.02;5.97;;;-2.10;99.90;;;;;;4952230;29;20072;-90
2024/01/16 07:09:28;;;;;;;12.00;5.93;;;-2.10;99.90;;;;;;4953998;28;20043;-90
2024/01/16 07:11:54;;;;;;;13.68;5.35;;;-2.10;99.90;;;;;;4954846;29;20188;-91
2024/01/16 07:14:20;;;;;;;11.02;5.18;;;-2.20;99.90;;;;;;4945742;28;20067;-90
2024/01/16 07:16:46;;;;;;;12.88;6.10;;;-2.20;99.90;;;;;;4954220;28;20054;-90
2024/01/16 07:19:12;;;;;;;12.65;5.70;;;-2.20;99.90;;;;;;4954165;28;20035;-91
2024/01/16 07:21:38;;;;;;;9.70;5.97;;;-2.20;99.90;;;;;;4954363;29;20046;-90
2024/01/16 07:24:05;;;;;;;9.52;5.75;;;-2.20;99.90;;;;;;4953846;29;20035;-90
2024/01/16 07:26:30;;;;;;;12.88;6.68;;;-2.20;99.90;;;;;;4945710;29;20031;-90
2024/01/16 07:28:56;;;;;;;10.85;5.78;;;-2.20;99.90;;;;;;4934744;29;20437;-90
2024/01/16 07:31:22;;;;;;;10.00;6.22;;;-2.20;99.90;;;;;;4922506;29;20163;-89
2024/01/16 07:33:48;;;;;;;9.73;5.47;;;-2.10;99.90;;;;;;4938364;29;20046;-90
2024/01/16 07:36:14;;;;;;;10.18;5.82;;;-2.10;99.90;;;;;;4938441;29;20111;-90
2024/01/16 07:38:40;;;;;;;16.55;6.65;;;-2.10;99.90;;;;;;4954467;28;20035;-91
2024/01/16 07:41:06;;;;;;;13.85;6.47;;;-2.10;99.90;;;;;;4957039;28;20031;-91
2024/01/16 07:43:32;;;;;;;15.63;6.38;;;-2.10;99.90;;;;;;4940969;28;20411;-90
2024/01/16 07:45:58;;;;;;;10.90;5.78;;;-2.00;99.90;;;;;;4941343;28;20806;-90
2024/01/16 07:48:24;;;;;;;12.27;6.25;;;-2.00;99.90;;;;;;4941848;28;20030;-90
2024/01/16 07:50:50;;;;;;;9.95;6.20;;;-2.00;99.90;;;;;;4974360;28;20487;-91
2024/01/16 07:53:16;;;;;;;13.13;6.07;;;-1.90;99.90;;;;;;4930938;29;20526;-90
2024/01/16 07:55:43;;;;;;;11.00;6.18;;;-1.90;99.90;;;;;;4928007;29;20035;-89
2024/01/16 07:58:11;;;;;;;12.75;6.43;;;-1.90;99.90;;;;;;4937270;29;20514;-89
2024/01/16 08:00:37;;;;;;;11.35;6.15;;;-1.80;99.90;;;;;;4951130;29;20031;-87
2024/01/16 08:03:03;;;;;;;16.02;7.18;;;-1.80;99.90;;;;;;4922384;29;20130;-90
2024/01/16 08:05:30;;;;;;;9.48;6.15;;;-1.70;99.90;;;;;;4962723;28;20039;-89
2024/01/16 08:07:59;;;;;;;14.25;7.35;;;-1.70;99.90;;;;;;4949282;29;20059;-90
2024/01/16 08:10:25;;;;;;;17.70;6.97;;;-1.60;99.90;;;;;;4954809;28;20035;-89
2024/01/16 08:12:53;;;;;;;8.95;6.22;;;-1.60;99.90;;;;;;4953885;29;20034;-89
2024/01/16 08:15:19;;;;;;;13.05;6.70;;;-1.60;99.90;;;;;;4954289;29;20035;-89
2024/01/16 08:17:45;;;;;;;16.42;8.18;;;-1.60;99.90;;;;;;4951809;29;20050;-90
2024/01/16 08:20:10;;;;;;;18.58;7.35;;;-1.60;99.90;;;;;;4922434;29;20031;-90
2024/01/16 08:22:37;;;;;;;12.75;6.80;;;-1.60;99.90;;;;;;4924235;29;20035;-90
2024/01/16 08:25:06;;;;;;;13.90;7.82;;;-1.60;99.90;;;;;;4923543;28;20031;-90
2024/01/16 08:27:33;;;;;;;12.15;7.43;;;-1.60;99.90;;;;;;4924801;28;20027;-90
2024/01/16 08:29:59;;;;;;;10.73;6.63;;;-1.60;99.90;;;;;;4924527;29;20188;-90
2024/01/16 08:32:25;;;;;;;10.98;6.80;;;-1.50;99.90;;;;;;4925201;29;20091;-90
2024/01/16 08:34:51;;;;;;;12.68;7.15;;;-1.50;99.90;;;;;;4923126;29;20091;-90
2024/01/16 08:37:17;;;;;;;12.82;7.40;;;-1.50;99.90;;;;;;4923708;28;20035;-90
2024/01/16 08:39:43;;;;;;;10.45;6.40;;;-1.50;99.90;;;;;;4938998;29;20055;-91
2024/01/16 08:42:11;;;;;;;12.73;7.50;;;-1.50;99.90;;;;;;4944541;29;20038;-90
2024/01/16 08:44:40;;;;;;;16.27;7.88;;;-1.40;99.90;;;;;;4955928;29;20090;-90
2024/01/16 08:47:07;;;;;;;13.88;7.03;;;-1.40;99.90;;;;;;4922799;29;20035;-90
2024/01/16 08:49:33;;;;;;;13.75;7.40;;;-1.40;99.90;;;;;;4940055;29;20054;-90
2024/01/16 08:51:59;;;;;;;16.75;7.75;;;-1.30;99.90;;;;;;4957259;29;20036;-90
2024/01/16 08:54:26;;;;;;;13.75;7.50;;;-1.20;99.90;;;;;;4925605;29;20031;-90
2024/01/16 08:56:55;;;;;;;14.50;7.43;;;-1.10;99.90;;;;;;4942306;29;20031;-90
2024/01/16 08:59:21;;;;;;;17.25;8.13;;;-1.00;99.90;;;;;;4960482;28;20035;-91
2024/01/16 09:01:47;;;;;;;15.68;7.10;;;-0.80;99.90;;;;;;4938280;29;20042;-90
2024/01/16 09:04:12;;;;;;;14.20;7.60;;;-0.70;99.90;;;;;;4957339;28;20031;-91
2024/01/16 09:06:38;;;;;;;13.88;7.22;;;-0.50;99.90;;;;;;4948088;29;20035;-91
2024/01/16 09:09:04;;;;;;;12.10;6.90;;;-0.40;99.90;;;;;;4944565;29;20046;-91
2024/01/16 09:11:31;;;;;;;14.25;7.20;;;-0.50;99.90;;;;;;4964153;28;20038;-91
2024/01/16 09:13:57;;;;;;;10.77;6.10;;;-0.40;99.90;;;;;;4947949;29;20035;-91
2024/01/16 09:16:23;;;;;;;10.07;6.00;;;-0.40;99.90;;;;;;4962799;28;20055;-91
2024/01/16 09:18:49;;;;;;;13.48;6.85;;;-0.30;99.90;;;;;;4946789;29;20035;-91
2024/01/16 09:21:16;;;;;;;10.38;5.75;;;-0.30;99.90;;;;;;4945085;29;20039;-91
2024/01/16 09:23:41;;;;;;;13.15;6.72;;;-0.30;99.90;;;;;;4941896;29;20392;-90
2024/01/16 09:26:07;;;;;;;10.95;6.22;;;-0.20;99.90;;;;;;4944827;29;20031;-90
2024/01/16 09:28:33;;;;;;;12.25;6.50;;;0.00;99.90;;;;;;4928705;29;20036;-91
2024/01/16 09:30:59;;;;;;;14.43;6.30;;;0.10;99.90;;;;;;4953467;29;20619;-91
2024/01/16 09:33:25;;;;;;;14.43;6.05;;;0.20;99.90;;;;;;4940935;29;20027;-91
2024/01/16 09:35:51;;;;;;;9.15;5.72;;;0.30;99.90;;;;;;4950494;29;20031;-90
2024/01/16 09:38:17;;;;;;;11.95;5.75;;;0.20;99.90;;;;;;4953305;29;20121;-91
2024/01/16 09:40:44;;;;;;;12.55;6.53;;;0.20;99.90;;;;;;4955934;29;20035;-91
2024/01/16 09:43:11;;;;;;;11.05;5.82;;;0.30;99.90;;;;;;4972778;29;20041;-90
2024/01/16 09:45:38;;;;;;;9.02;5.38;;;0.50;99.90;;;;;;4957570;28;20055;-90
2024/01/16 09:48:05;;;;;;;11.70;6.10;;;0.40;99.90;;;;;;4956107;29;20027;-90
2024/01/16 09:50:31;;;;;;;14.57;5.88;;;0.30;99.90;;;;;;4952715;29;20546;-90
2024/01/16 09:52:58;;;;;;;9.73;5.68;;;0.20;99.90;;;;;;4939123;29;20039;-90
2024/01/16 09:55:24;;;;;;;10.20;5.55;;;0.30;99.90;;;;;;4967533;29;20035;-90
2024/01/16 09:57:55;;;;;;;12.95;5.38;;;0.40;99.90;;;;;;4971702;28;20087;-90
2024/01/16 10:00:24;;;;;;;11.48;6.32;;;0.40;99.90;;;;;;4973233;29;20032;-90
2024/01/16 10:02:50;;;;;;;11.00;6.30;;;0.50;99.90;;;;;;4956995;29;20038;-90
2024/01/16 10:05:16;;;;;;;12.20;6.30;;;0.60;99.90;;;;;;4930042;29;20032;-90
2024/01/16 10:07:45;;;;;;;9.45;5.57;;;0.60;99.90;;;;;;4947248;29;20026;-89
2024/01/16 10:10:12;;;;;;;9.82;6.00;;;0.80;99.90;;;;;;4924278;29;20062;-90
2024/01/16 10:12:39;;;;;;;14.10;5.65;;;1.00;99.90;;;;;;4923740;29;20035;-90
2024/01/16 10:15:07;;;;;;;13.52;6.05;;;1.20;99.90;;;;;;4931367;28;20448;-90
2024/01/16 10:17:42;;;;;;;12.55;5.97;;;1.40;99.90;;;;;;4923125;28;20039;-90
2024/01/16 10:20:13;;;;;;;8.17;5.40;;;1.50;99.90;;;;;;4938813;29;20122;-90
2024/01/16 10:22:52;;;;;;;12.38;5.70;;;1.60;99.90;;;;;;4923058;29;20279;-89
2024/01/16 10:25:19;;;;;;;9.95;5.50;;;1.70;99.90;;;;;;4923241;29;20183;-89
2024/01/16 10:27:45;;;;;;;11.50;5.40;;;1.50;99.90;;;;;;4938757;29;20041;-89
2024/01/16 10:30:12;;;;;;;13.10;5.82;;;1.70;99.90;;;;;;4939055;29;20130;-89
2024/01/16 10:32:39;;;;;;;9.02;5.30;;;1.80;99.90;;;;;;4938764;29;20039;-89
2024/01/16 10:35:13;;;;;;;8.52;5.05;;;2.00;99.90;;;;;;4926746;29;20023;-89
2024/01/16 10:37:53;;;;;;;9.85;5.68;;;2.10;99.90;;;;;;4923504;29;20067;-89
2024/01/16 10:40:20;;;;;;;10.82;5.55;;;2.30;99.90;;;;;;4933325;28;20039;-90
2024/01/16 10:42:57;;;;;;;7.65;5.00;;;2.50;99.90;;;;;;4929224;29;20059;-89
2024/01/16 10:45:22;;;;;;;12.60;5.38;;;2.60;99.90;;;;;;4930016;29;20119;-90
2024/01/16 10:48:00;;;;;;;9.23;5.10;;;2.50;99.90;;;;;;4945171;28;20114;-89
2024/01/16 10:50:26;;;;;;;10.23;5.82;;;2.00;99.90;;;;;;4953193;28;20098;-89
2024/01/16 10:52:54;;;;;;;10.75;5.65;;;1.60;99.90;;;;;;4950193;28;20491;-89
2024/01/16 10:55:22;;;;;;;10.18;5.78;;;1.50;99.90;;;;;;4937610;29;20081;-89
2024/01/16 10:57:50;;;;;;;10.68;5.85;;;1.40;99.90;;;;;;4922210;29;20031;-88
2024/01/16 11:00:21;;;;;;;9.85;5.50;;;1.30;99.90;;;;;;4955198;28;20507;-89
2024/01/16 11:03:05;;;;;;;9.48;5.57;;;1.00;99.90;;;;;;4945871;28;20035;-90
2024/01/16 11:05:36;;;;;;;10.88;5.38;;;0.90;99.90;;;;;;4947285;29;20050;-88
2024/01/16 11:08:03;;;;;;;8.82;5.38;;;0.80;99.90;;;;;;4922663;29;20101;-88
2024/01/16 11:10:30;;;;;;;9.45;5.35;;;0.70;99.90;;;;;;4962573;28;20084;-90
2024/01/16 11:13:00;;;;;;;10.20;5.50;;;0.70;99.90;;;;;;4938814;29;20118;-89
2024/01/16 11:15:28;;;;;;;8.95;5.28;;;0.60;99.90;;;;;;4938467;28;20035;-88
2024/01/16 11:17:56;;;;;;;10.30;5.82;;;0.60;99.90;;;;;;4937969;29;20063;-88
2024/01/16 11:20:23;;;;;;;13.02;5.75;;;0.50;99.90;;;;;;4961589;28;20036;-88
2024/01/16 11:22:50;;;;;;;9.63;5.60;;;0.60;99.90;;;;;;4957141;28;20058;-90
2024/01/16 11:25:18;;;;;;;10.52;5.50;;;0.60;99.90;;;;;;4946688;29;20090;-88
2024/01/16 11:27:50;;;;;;;9.35;5.50;;;0.40;99.90;;;;;;4927982;28;20027;-88
2024/01/16 11:30:30;;;;;;;10.07;5.30;;;0.40;99.90;;;;;;4941082;28;20031;-88
2024/01/16 11:32:56;;;;;;;14.98;5.95;;;0.40;99.90;;;;;;4941186;29;20391;-88
2024/01/16 11:35:42;;;;;;;9.23;5.43;;;0.40;99.90;;;;;;4913918;29;20031;-88
2024/01/16 11:38:17;;;;;;;10.77;5.68;;;0.40;99.90;;;;;;4929828;29;20038;-88
2024/01/16 11:40:43;;;;;;;9.10;5.10;;;0.40;99.90;;;;;;4951753;29;20031;-88
2024/01/16 11:43:27;;;;;;;10.40;5.50;;;0.30;99.90;;;;;;4953332;28;20050;-88
2024/01/16 11:45:53;;;;;;;11.35;5.75;;;0.20;99.90;;;;;;4945655;29;20039;-89
2024/01/16 11:48:19;;;;;;;12.30;5.40;;;0.20;99.90;;;;;;4915922;28;20300;-88
2024/01/16 11:50:45;;;;;;;12.32;5.57;;;0.20;99.90;;;;;;4920621;29;20039;-87
2024/01/16 11:53:33;;;;;;;11.90;5.25;;;0.20;99.90;;;;;;4942561;28;20544;-88
2024/01/16 11:56:53;;;;;;;8.80;5.03;;;0.30;99.90;;;;;;4953994;28;20035;-87
2024/01/16 11:59:57;;;;;;;8.75;4.97;;;0.30;99.90;;;;;;4937034;28;20042;-89
2024/01/16 12:02:36;;;;;;;10.07;4.63;;;0.50;99.90;;;;;;4947555;28;20031;-88
2024/01/16 12:05:06;;;;;;;9.50;5.20;;;0.70;99.90;;;;;;4924328;29;20023;-88
2024/01/16 12:07:50;;;;;;;7.10;4.85;;;0.90;99.90;;;;;;4952364;28;20034;-88
2024/01/16 12:10:19;;;;;;;9.05;4.45;;;1.00;99.90;;;;;;4961916;28;20042;-88
2024/01/16 12:12:46;;;;;;;11.20;5.22;;;1.00;99.90;;;;;;4936748;29;20043;-87
2024/01/16 12:15:20;;;;;;;10.75;5.57;;;0.80;99.90;;;;;;4946310;29;20051;-86
2024/01/16 12:17:53;;;;;;;11.27;4.65;;;0.90;99.90;;;;;;4928574;29;20118;-87
2024/01/16 12:20:21;;;;;;;10.32;4.95;;;1.00;99.90;;;;;;4953418;28;20121;-87
2024/01/16 12:23:00;;;;;;;10.23;4.53;;;1.00;99.90;;;;;;4913678;29;20042;-86
2024/01/16 12:25:30;;;;;;;12.45;5.00;;;1.00;99.90;;;;;;4944614;29;20042;-86
2024/01/16 12:27:59;;;;;;;10.35;4.30;;;1.00;99.90;;;;;;4927062;29;20083;-87
2024/01/16 12:30:35;;;;;;;7.38;4.60;;;0.90;99.90;;;;;;4937019;29;20054;-88
2024/01/16 12:33:07;;;;;;;11.65;4.82;;;0.80;99.90;;;;;;4961378;28;20055;-87
2024/01/16 12:35:34;;;;;;;6.60;4.18;;;0.70;99.90;;;;;;4936906;29;20046;-87
2024/01/16 12:38:01;;;;;;;9.35;4.05;;;0.70;99.90;;;;;;4938826;28;20034;-87
2024/01/16 12:40:28;;;;;;;8.60;4.15;;;0.70;99.90;;;;;;4927436;29;20035;-88
2024/01/16 12:42:55;;;;;;;11.05;4.72;;;0.90;99.90;;;;;;4936514;29;20039;-88
2024/01/16 12:45:22;;;;;;;7.88;4.80;;;0.90;99.90;;;;;;4944032;28;20040;-87
2024/01/16 12:47:53;;;;;;;8.75;4.20;;;0.80;99.90;;;;;;4923866;29;20031;-87